createdAt,value
2018-09-28T00:04:56.270Z,45.4
2018-09-28T00:09:58.629Z,45.7
2018-09-28T00:15:01.106Z,46
2018-09-28T00:20:03.532Z,46.3
2018-09-28T00:25:05.981Z,46.6
2018-09-28T00:30:08.599Z,46.7
2018-09-28T00:35:10.853Z,47
2018-09-28T00:40:13.284Z,47.3
2018-09-28T00:45:15.814Z,47.6
2018-09-28T00:50:18.146Z,47.7
2018-09-28T00:55:20.611Z,48
2018-09-28T01:00:23.084Z,47.9
2018-09-28T01:05:25.883Z,48
2018-09-28T01:10:27.935Z,48.3
2018-09-28T01:15:30.373Z,48.5
2018-09-28T01:20:32.819Z,48.9
2018-09-28T01:25:35.246Z,48.9
2018-09-28T01:30:37.696Z,48.9
2018-09-28T01:35:40.121Z,49.2
2018-09-28T01:40:42.667Z,49.2
2018-09-28T01:45:44.999Z,49.3
2018-09-28T01:50:47.454Z,49.4
2018-09-28T01:55:49.964Z,49.5
2018-09-28T02:00:52.338Z,49.7
2018-09-28T02:05:54.774Z,49.7
2018-09-28T02:10:57.205Z,50
2018-09-28T02:15:59.673Z,50.2
2018-09-28T02:21:02.135Z,50.3
2018-09-28T02:26:04.539Z,50.4
2018-09-28T02:31:07.118Z,51.3
2018-09-28T02:36:09.440Z,51.4
2018-09-28T02:41:11.910Z,51.6
2018-09-28T02:46:14.336Z,51.7
2018-09-28T02:51:16.842Z,51.9
2018-09-28T02:56:19.162Z,52.1
2018-09-28T03:01:21.637Z,52.5
2018-09-28T03:06:24.148Z,52.4
2018-09-28T03:11:26.528Z,52.2
2018-09-28T03:16:28.944Z,52.1
2018-09-28T03:21:31.434Z,52.2
2018-09-28T03:26:33.841Z,52.4
2018-09-28T03:31:36.330Z,52.5
2018-09-28T03:36:38.749Z,52.6
2018-09-28T03:41:41.464Z,52.6
2018-09-28T03:46:43.682Z,52.9
2018-09-28T03:51:46.050Z,53.3
2018-09-28T03:56:48.455Z,53.7
2018-09-28T04:01:51.102Z,54.1
2018-09-28T04:06:53.389Z,54.1
2018-09-28T04:11:55.922Z,54.4
2018-09-28T04:16:58.237Z,54.2
2018-09-28T04:22:00.871Z,54.1
2018-09-28T04:27:03.242Z,54.1
2018-09-28T04:32:05.808Z,54.2
2018-09-28T04:37:08.167Z,54.3
2018-09-28T04:42:10.496Z,54.6
2018-09-28T04:47:12.875Z,54.7
2018-09-28T04:52:15.345Z,54.7
2018-09-28T04:57:17.744Z,55
2018-09-28T05:02:20.202Z,55.1
2018-09-28T05:07:22.693Z,55.1
2018-09-28T05:12:25.315Z,55
2018-09-28T05:17:27.781Z,55.1
2018-09-28T05:22:30.018Z,55.2
2018-09-28T05:27:32.470Z,55.4
2018-09-28T05:32:35.179Z,55.6
2018-09-28T05:37:37.491Z,55.7
2018-09-28T05:42:40.050Z,55.8
2018-09-28T05:47:42.178Z,55.9
2018-09-28T05:52:44.748Z,56.2
2018-09-28T05:57:47.127Z,56.3
2018-09-28T06:02:49.571Z,56.7
2018-09-28T06:07:51.944Z,56.7
2018-09-28T06:12:54.379Z,56.4
2018-09-28T06:17:56.839Z,56.1
2018-09-28T06:22:59.283Z,55
2018-09-28T06:28:01.700Z,55
2018-09-28T06:33:04.177Z,54.8
2018-09-28T06:38:06.590Z,54.9
2018-09-28T06:43:09.007Z,55.1
2018-09-28T06:48:11.520Z,54.8
2018-09-28T06:53:13.891Z,54.3
2018-09-28T06:58:16.441Z,53.1
2018-09-28T07:03:18.854Z,52.7
2018-09-28T07:08:21.736Z,52.6
2018-09-28T07:13:23.707Z,51.9
2018-09-28T07:18:26.253Z,51.6
2018-09-28T07:23:28.780Z,51.1
2018-09-28T07:28:30.989Z,50.7
2018-09-28T07:33:33.521Z,50
2018-09-28T07:38:36.161Z,49.8
2018-09-28T07:43:38.374Z,50.2
2018-09-28T07:48:40.770Z,49.8
2018-09-28T07:53:43.249Z,49.7
2018-09-28T07:58:46.241Z,49
2018-09-28T08:03:48.150Z,49.1
2018-09-28T08:08:50.510Z,48.6
2018-09-28T08:13:52.978Z,48.8
2018-09-28T08:18:55.432Z,49.3
2018-09-28T08:23:57.868Z,49.4
2018-09-28T08:29:00.284Z,49.5
2018-09-28T08:34:02.823Z,49.9
2018-09-28T08:39:05.147Z,50.2
2018-09-28T08:44:08.063Z,50.4
2018-09-28T08:54:12.526Z,50.3
2018-09-28T08:59:14.905Z,50.3
2018-09-28T09:04:17.351Z,50.2
2018-09-28T09:09:19.988Z,50.9
2018-09-28T09:14:22.366Z,52.2
2018-09-28T09:19:24.693Z,52.6
2018-09-28T09:24:27.132Z,52.9
2018-09-28T09:29:29.701Z,53.5
2018-09-28T09:34:32.021Z,53.5
2018-09-28T09:39:34.462Z,53.5
2018-09-28T09:44:37.388Z,53.5
2018-09-28T09:49:39.616Z,53.8
2018-09-28T09:54:41.768Z,53.7
2018-09-28T09:59:44.214Z,53.6
2018-09-28T10:04:46.640Z,54.2
2018-09-28T10:09:49.127Z,54.2
2018-09-28T10:14:52.664Z,55.2
2018-09-28T10:19:54.003Z,55.2
2018-09-28T10:24:56.418Z,54.9
2018-09-28T10:35:01.327Z,54.4
2018-09-28T10:40:03.867Z,54.2
2018-09-28T10:45:06.905Z,54.7
2018-09-28T10:50:08.735Z,55.2
2018-09-28T10:55:11.110Z,55.3
2018-09-28T11:00:13.551Z,56.1
2018-09-28T11:05:15.967Z,55.6
2018-09-28T11:10:18.622Z,55.4
2018-09-28T11:15:21.122Z,55.6
2018-09-28T11:20:23.265Z,56.6
2018-09-28T11:25:25.689Z,57.1
2018-09-28T11:30:28.623Z,57.8
2018-09-28T11:35:30.554Z,58.3
2018-09-28T11:40:33.004Z,58.8
2018-09-28T11:45:35.482Z,60.2
2018-09-28T11:50:38.319Z,61.6
2018-09-28T11:55:40.522Z,62.3
2018-09-28T12:00:42.758Z,64
2018-09-28T12:05:45.406Z,64.9
2018-09-28T12:10:47.755Z,67
2018-09-28T12:20:52.522Z,68.5
2018-09-28T12:25:54.982Z,69.4
2018-09-28T12:30:57.412Z,70.5
2018-09-28T12:35:59.898Z,70.7
2018-09-28T12:41:02.384Z,73
2018-09-28T12:46:04.787Z,73.6
2018-09-28T12:51:07.248Z,74.5
2018-09-28T12:56:09.652Z,74.4
2018-09-28T13:01:12.372Z,74.2
2018-09-28T13:06:14.600Z,75.2
2018-09-28T13:11:16.937Z,75.6
2018-09-28T13:16:19.372Z,76.4
2018-09-28T13:21:21.849Z,76.5
2018-09-28T13:26:24.296Z,76.1
2018-09-28T13:31:26.904Z,76.2
2018-09-28T13:36:29.165Z,75.8
2018-09-28T13:41:31.591Z,75.5
2018-09-28T13:46:34.238Z,75.4
2018-09-28T13:51:36.464Z,75.6
2018-09-28T13:56:39.035Z,75.4
2018-09-28T14:01:41.355Z,75.5
2018-09-28T14:06:43.949Z,75.7
2018-09-28T14:11:46.244Z,75.8
2018-09-28T14:16:48.783Z,75.6
2018-09-28T14:21:51.270Z,75.7
2018-09-28T14:26:53.558Z,75.7
2018-09-28T14:31:56.065Z,75.8
2018-09-28T14:36:58.509Z,75.7
2018-09-28T14:42:01.006Z,75.7
2018-09-28T14:47:03.323Z,75.6
2018-09-28T14:52:05.926Z,75.2
2018-09-28T14:57:08.260Z,75.1
2018-09-28T15:02:10.703Z,74.5
2018-09-28T15:07:13.104Z,73
2018-09-28T15:12:15.582Z,71.5
2018-09-28T15:17:17.960Z,71.5
2018-09-28T15:22:20.399Z,71.2
2018-09-28T15:27:22.889Z,71.5
2018-09-28T15:32:25.352Z,72.1
2018-09-28T15:37:27.710Z,72.3
2018-09-28T15:42:30.221Z,72.7
2018-09-28T15:47:32.715Z,73.3
2018-09-28T15:52:35.135Z,73.6
2018-09-28T15:57:37.750Z,74.7
2018-09-28T16:02:40.037Z,75.2
2018-09-28T16:07:42.414Z,74.9
2018-09-28T16:12:44.763Z,74.3
2018-09-28T16:17:47.229Z,73.6
2018-09-28T16:22:49.675Z,70.2
2018-09-28T16:27:52.158Z,66.1
2018-09-28T16:32:54.590Z,61
2018-09-28T16:37:56.986Z,61.6
2018-09-28T16:42:59.726Z,62
2018-09-28T16:48:01.894Z,61.3
2018-09-28T16:53:04.370Z,59.9
2018-09-28T16:58:06.835Z,59.1
2018-09-28T17:03:09.246Z,58.4
2018-09-28T17:08:11.605Z,58.3
2018-09-28T17:13:14.142Z,57.8
2018-09-28T17:18:16.494Z,57.4
2018-09-28T17:23:18.951Z,57.4
2018-09-28T17:28:21.421Z,57.5
2018-09-28T17:33:23.839Z,57.5
2018-09-28T17:38:26.317Z,57.7
2018-09-28T17:43:28.745Z,57.9
2018-09-28T17:48:31.189Z,58.2
2018-09-28T17:53:33.809Z,58.1
2018-09-28T17:58:36.202Z,58.1
2018-09-28T18:03:38.629Z,58.6
2018-09-28T18:08:41.057Z,59.1
2018-09-28T18:13:43.321Z,59.1
2018-09-28T18:18:46.242Z,59.2
2018-09-28T18:23:48.304Z,59.3
2018-09-28T18:28:50.667Z,59.6
2018-09-28T18:33:53.512Z,59.5
2018-09-28T18:38:55.593Z,59.3
2018-09-28T18:43:58.026Z,59.1
2018-09-28T18:49:00.433Z,58.9
2018-09-28T18:54:02.912Z,58.7
2018-09-28T18:59:05.362Z,57.5
2018-09-28T19:04:07.803Z,56.5
2018-09-28T19:09:10.322Z,56.2
2018-09-28T19:14:12.757Z,55.8
2018-09-28T19:19:15.144Z,55.2
2018-09-28T19:24:17.525Z,55
2018-09-28T19:29:20.018Z,54.5
2018-09-28T19:34:22.479Z,54.2
2018-09-28T19:39:24.832Z,53.9
2018-09-28T19:44:27.624Z,53.9
2018-09-28T19:49:29.890Z,53.7
2018-09-28T19:54:32.172Z,53.8
2018-09-28T19:59:34.629Z,54
2018-09-28T20:04:37.124Z,54
2018-09-28T20:09:39.714Z,53.9
2018-09-28T20:14:41.965Z,53.9
2018-09-28T20:19:44.401Z,53.8
2018-09-28T20:24:46.907Z,53.8
2018-09-28T20:29:49.257Z,54
2018-09-28T20:34:51.758Z,54.1
2018-09-28T20:39:54.400Z,54.1
2018-09-28T20:44:56.602Z,54
2018-09-28T20:49:58.996Z,54.1
2018-09-28T20:55:01.484Z,53.8
2018-09-28T21:00:03.945Z,53.7
2018-09-28T21:05:06.357Z,53.8
2018-09-28T21:10:08.764Z,54
2018-09-28T21:15:11.201Z,53.7
2018-09-28T21:20:13.749Z,53.6
2018-09-28T21:25:16.089Z,53.5
2018-09-28T21:30:18.523Z,53.2
2018-09-28T21:35:21.193Z,53.2
2018-09-28T21:40:23.408Z,53.2
2018-09-28T21:45:25.852Z,53.2
2018-09-28T21:50:28.295Z,53
2018-09-28T21:55:30.717Z,52.8
2018-09-28T22:00:33.292Z,52.7
2018-09-28T22:05:35.597Z,52.5
2018-09-28T22:10:38.078Z,52.5
2018-09-28T22:15:40.482Z,52.5
2018-09-28T22:20:42.959Z,52.5
2018-09-28T22:25:45.375Z,52.7
2018-09-28T22:30:47.838Z,53.1
2018-09-28T22:35:50.379Z,53.7
2018-09-28T22:40:52.720Z,53.9
2018-09-28T22:45:55.152Z,53.8
2018-09-28T22:50:57.574Z,53.8
2018-09-28T22:56:00.025Z,53.9
2018-09-28T23:01:02.490Z,53.7
2018-09-28T23:06:05.187Z,53.8
2018-09-28T23:11:07.339Z,54.1
2018-09-28T23:16:09.769Z,54.4
2018-09-28T23:21:12.237Z,54.8
2018-09-28T23:26:14.700Z,55
2018-09-28T23:31:17.209Z,55
2018-09-28T23:36:19.576Z,55.4
2018-09-28T23:41:22.135Z,55.8
2018-09-28T23:46:24.508Z,55.8
2018-09-28T23:51:26.906Z,55.9
2018-09-28T23:56:29.361Z,56
